Emu Arrow — C6OR4 — position and weather

sailwx.info

Track history (hours):
 
Tides and Currents Weather Stations Pressure Air Temp Water Temp Dewpoint Dewpoint Depression Visibility Wind Speed Wind Dir Waves Ship Positions

Emu Arrow

Last reported at 2017-Jan-04 15:24 UTC. Time now 2017-Jan-21 04:28 UTC.
Position S 22°48' W 041°15'.
Warning: this ship's position is 16 days out of date.

Length 200 m; draft 9.5 m.

Type: Cargo ship. MMSI: 309805000.

Date/timePositionNaut miles runAvg speedWind from/ knotsBaromVisibWave heightAir tempDewpointWater temp
2017-Jan-04 15:24S 22°48' W 041°15'1410.7
2017-Jan-04 14:08S 22°58' W 041°26'610.5
2017-Jan-04 13:31S 23°02' W 041°31'1110.6
2017-Jan-04 12:29S 23°10' W 041°39'2211.2
2017-Jan-04 10:30S 23°26' W 041°56'3511.6
2017-Jan-04 07:30S 23°51' W 042°22'1312.2
2017-Jan-04 06:25S 24°01' W 042°32'  
2016-Dec-28 15:23S 35°04' W 054°55'1012.5
2016-Dec-28 14:34S 35°04' W 055°08'2812.4
2016-Dec-28 12:19S 35°04' W 055°42'1312.5
2016-Dec-28 11:14S 35°04' W 055°58'5 8.1
2016-Dec-28 10:33S 35°06' W 056°04'6910.9
2016-Dec-28 04:14S 34°49' W 057°26'9 8.3
2016-Dec-28 03:10S 34°45' W 057°36'6 9.6
2016-Dec-28 02:33S 34°44' W 057°43'10 9.8
2016-Dec-28 01:33S 34°42' W 057°54'9 9.4
2016-Dec-28 00:33S 34°33' W 057°56'1110.9
2016-Dec-27 23:33S 34°22' W 058°00'10 9.0
2016-Dec-27 22:28S 34°13' W 058°05'0 0.0
2016-Dec-26 11:05S 34°13' W 058°04'0 0.0
2016-Dec-26 10:32S 34°13' W 058°04'0 0.3
2016-Dec-26 09:33S 34°14' W 058°05'1110.1
2016-Dec-26 08:26S 34°24' W 057°59'1012.0
2016-Dec-26 07:33S 34°34' W 057°56'10 9.6
2016-Dec-26 06:33S 34°43' W 057°52'1211.9
2016-Dec-26 05:33S 34°39' W 058°06'1211.8
2016-Dec-26 04:31S 34°33' W 058°19'  
Track history (hours):
 
Tides and Currents Weather Stations Pressure Air Temp Water Temp Dewpoint Dewpoint Depression Visibility Wind Speed Wind Dir Waves Ship Positions

Emu Arrow

Last reported at 2017-Jan-04 15:24 UTC. Time now 2017-Jan-21 04:28 UTC.
Position S 22°48' W 041°15'.
Warning: this ship's position is 16 days out of date.

Length 200 m; draft 9.5 m.

Type: Cargo ship. MMSI: 309805000.

Date/timePositionNaut miles runAvg speedWind from/ knotsBaromVisibWave heightAir tempDewpointWater temp
2017-Jan-04 15:24S 22°48' W 041°15'1410.7
2017-Jan-04 14:08S 22°58' W 041°26'610.5
2017-Jan-04 13:31S 23°02' W 041°31'1110.6
2017-Jan-04 12:29S 23°10' W 041°39'2211.2
2017-Jan-04 10:30S 23°26' W 041°56'3511.6
2017-Jan-04 07:30S 23°51' W 042°22'1312.2
2017-Jan-04 06:25S 24°01' W 042°32'  
2016-Dec-28 15:23S 35°04' W 054°55'1012.5
2016-Dec-28 14:34S 35°04' W 055°08'2812.4
2016-Dec-28 12:19S 35°04' W 055°42'1312.5
2016-Dec-28 11:14S 35°04' W 055°58'5 8.1
2016-Dec-28 10:33S 35°06' W 056°04'6910.9
2016-Dec-28 04:14S 34°49' W 057°26'9 8.3
2016-Dec-28 03:10S 34°45' W 057°36'6 9.6
2016-Dec-28 02:33S 34°44' W 057°43'10 9.8
2016-Dec-28 01:33S 34°42' W 057°54'9 9.4
2016-Dec-28 00:33S 34°33' W 057°56'1110.9
2016-Dec-27 23:33S 34°22' W 058°00'10 9.0
2016-Dec-27 22:28S 34°13' W 058°05'0 0.0
2016-Dec-26 11:05S 34°13' W 058°04'0 0.0
2016-Dec-26 10:32S 34°13' W 058°04'0 0.3
2016-Dec-26 09:33S 34°14' W 058°05'1110.1
2016-Dec-26 08:26S 34°24' W 057°59'1012.0
2016-Dec-26 07:33S 34°34' W 057°56'10 9.6
2016-Dec-26 06:33S 34°43' W 057°52'1211.9
2016-Dec-26 05:33S 34°39' W 058°06'1211.8
2016-Dec-26 04:31S 34°33' W 058°19'  

Dump ship's entire track history